Time;durP1;ratioP1;P1;durP2;ratioP2;P2;SDS_P1;SDS_P2;PMS_P1;PMS_P2;Temp;Humidity;BMP_temperature;BMP_pressure;BME280_temperature;BME280_humidity;BME280_pressure;Samples;Min_cycle;Max_cycle;Signal;HPM_P1;HPM_P2
2023/06/01 00:02:18;;;;;;;10.70;6.40;;;;;;;10.28;100.00;99429.45;105638;1254;69254;-71
2023/06/01 00:04:45;;;;;;;10.60;7.10;;;;;;;10.29;100.00;99428.10;105661;1254;73214;-68
2023/06/01 00:07:12;;;;;;;8.40;6.90;;;;;;;10.27;100.00;99424.44;105642;1254;62068;-70
2023/06/01 00:09:40;;;;;;;11.20;7.20;;;;;;;10.21;100.00;99426.52;105677;1254;61225;-70
2023/06/01 00:12:07;;;;;;;9.20;6.70;;;;;;;10.19;100.00;99424.62;105597;1262;75171;-68
2023/06/01 00:14:35;;;;;;;8.40;7.40;;;;;;;10.07;100.00;99425.17;105734;1253;68383;-70
2023/06/01 00:17:03;;;;;;;10.40;6.40;;;;;;;10.09;100.00;99420.13;105718;1254;72681;-71
2023/06/01 00:19:30;;;;;;;10.60;7.60;;;;;;;10.07;100.00;99420.91;105926;1257;61319;-70
2023/06/01 00:21:57;;;;;;;10.90;6.80;;;;;;;10.05;100.00;99422.72;108478;1253;61125;-71
2023/06/01 00:24:25;;;;;;;14.30;7.70;;;;;;;10.07;100.00;99425.90;107222;1260;73286;-71
2023/06/01 00:26:52;;;;;;;12.00;7.20;;;;;;;9.97;100.00;99422.80;105743;1254;68613;-75
2023/06/01 00:29:19;;;;;;;9.20;7.00;;;;;;;9.80;100.00;99416.61;105657;1254;73128;-70
2023/06/01 00:31:46;;;;;;;10.70;7.20;;;;;;;9.78;100.00;99422.21;105665;1254;61904;-70
2023/06/01 00:34:13;;;;;;;16.60;7.80;;;;;;;9.84;100.00;99418.85;105708;1253;62223;-69
2023/06/01 00:36:40;;;;;;;15.80;7.50;;;;;;;9.94;100.00;99418.10;105683;1259;75040;-70
2023/06/01 00:39:07;;;;;;;11.00;6.90;;;;;;;9.83;100.00;99416.23;105571;1253;69315;-74
2023/06/01 00:41:34;;;;;;;18.90;7.90;;;;;;;9.76;100.00;99416.52;105692;1254;73450;-72
2023/06/01 00:44:01;;;;;;;11.90;8.10;;;;;;;10.50;100.00;99416.21;105631;1254;61642;-73
2023/06/01 00:46:28;;;;;;;10.60;6.80;;;;;;;12.22;100.00;99423.64;105697;1254;61324;-75
2023/06/01 00:48:55;;;;;;;10.70;7.40;;;;;;;12.26;100.00;99423.86;105593;1254;75334;-75
2023/06/01 00:51:22;;;;;;;15.00;8.30;;;;;;;12.29;100.00;99421.44;105670;1262;67428;-72
2023/06/01 00:53:49;;;;;;;9.30;7.10;;;;;;;12.23;100.00;99426.77;105690;1253;71922;-76
2023/06/01 00:56:17;;;;;;;14.40;7.80;;;;;;;12.18;100.00;99426.70;105721;1253;61221;-76
2023/06/01 00:58:43;;;;;;;15.50;7.80;;;;;;;12.15;100.00;99426.05;105585;1254;61279;-74
2023/06/01 01:01:18;;;;;;;15.30;8.50;;;;;;;12.12;100.00;99430.04;105613;1257;74715;-75
2023/06/01 01:03:49;;;;;;;17.60;8.40;;;;;;;12.15;100.00;99427.08;105761;1253;69175;-71
2023/06/01 01:06:28;;;;;;;16.40;9.30;;;;;;;12.11;100.00;99429.80;105690;1257;71414;-73
2023/06/01 01:09:33;;;;;;;21.00;9.70;;;;;;;12.24;100.00;99430.04;105689;1253;61595;-73
2023/06/01 01:12:04;;;;;;;14.00;8.30;;;;;;;12.47;100.00;99429.84;105074;1264;61336;-69
2023/06/01 01:14:48;;;;;;;16.70;8.30;;;;;;;12.57;100.00;99429.25;105189;1267;74761;-69
2023/06/01 01:17:47;;;;;;;11.40;8.40;;;;;;;12.63;100.00;99431.45;105145;1264;68447;-69
2023/06/01 01:20:24;;;;;;;12.60;9.20;;;;;;;12.53;100.00;99433.66;104575;1270;72483;-69
2023/06/01 01:23:10;;;;;;;12.90;8.60;;;;;;;12.57;100.00;99429.58;104168;1279;61550;-71
2023/06/01 01:26:14;;;;;;;19.50;8.50;;;;;;;12.48;100.00;99426.23;104568;1276;61324;-72
2023/06/01 01:28:48;;;;;;;18.70;9.10;;;;;;;12.42;100.00;99430.33;104512;1276;75172;-70
2023/06/01 01:31:22;;;;;;;17.00;8.10;;;;;;;12.44;100.00;99438.56;104598;1271;67583;-71
2023/06/01 01:33:55;;;;;;;24.80;9.90;;;;;;;12.46;100.00;99439.64;104547;1276;72492;-71
2023/06/01 01:36:23;;;;;;;12.00;8.30;;;;;;;12.43;100.00;99439.84;104543;1270;61731;-70
2023/06/01 01:38:50;;;;;;;12.30;8.20;;;;;;;12.30;100.00;99440.23;104577;1271;61448;-67
2023/06/01 01:41:17;;;;;;;15.00;7.90;;;;;;;12.23;100.00;99438.71;104507;1275;74647;-71
2023/06/01 01:43:44;;;;;;;15.80;8.70;;;;;;;12.26;100.00;99439.02;104516;1271;68643;-69
2023/06/01 01:46:28;;;;;;;10.40;8.30;;;;;;;12.17;100.00;99439.13;104511;1273;73010;-68
2023/06/01 01:49:05;;;;;;;15.60;8.50;;;;;;;12.26;100.00;99440.22;105016;1264;61723;-72
2023/06/01 01:51:38;;;;;;;14.10;8.10;;;;;;;12.26;100.00;99441.14;105180;1262;62381;-70
2023/06/01 01:54:06;;;;;;;14.10;8.70;;;;;;;12.24;100.00;99440.75;104889;1270;74267;-70
2023/06/01 01:56:37;;;;;;;16.90;8.50;;;;;;;12.13;100.00;99440.77;105040;1256;67491;-67
2023/06/01 01:59:04;;;;;;;12.90;8.20;;;;;;;12.15;100.00;99440.04;105632;1256;72415;-69
2023/06/01 02:01:32;;;;;;;16.10;8.90;;;;;;;12.16;100.00;99440.09;105559;1254;62465;-70
2023/06/01 02:04:03;;;;;;;15.70;8.20;;;;;;;12.16;100.00;99437.13;105357;1253;61388;-70
2023/06/01 02:06:32;;;;;;;13.50;7.50;;;;;;;12.07;100.00;99438.24;105802;1259;74492;-69
2023/06/01 02:08:59;;;;;;;15.70;8.10;;;;;;;12.10;100.00;99439.60;105706;1253;68488;-73
2023/06/01 02:11:26;;;;;;;14.50;7.30;;;;;;;12.17;100.00;99441.34;105788;1254;72460;-69
2023/06/01 02:13:53;;;;;;;20.20;8.10;;;;;;;12.24;100.00;99443.88;105690;1254;62356;-72
2023/06/01 02:16:21;;;;;;;15.90;7.90;;;;;;;12.21;100.00;99444.47;105698;1254;62346;-72
2023/06/01 02:18:50;;;;;;;14.50;8.20;;;;;;;12.26;100.00;99444.90;105766;1257;74464;-70
2023/06/01 02:21:16;;;;;;;22.80;8.70;;;;;;;12.07;100.00;99440.73;105630;1257;67245;-69
2023/06/01 02:23:44;;;;;;;14.80;8.30;;;;;;;12.20;100.00;99441.12;105702;1257;73155;-70
2023/06/01 02:26:11;;;;;;;18.70;9.70;;;;;;;12.32;100.00;99440.71;105666;1253;61986;-72
2023/06/01 02:28:38;;;;;;;15.80;7.70;;;;;;;12.38;100.00;99442.81;105495;1254;62248;-72
2023/06/01 02:31:06;;;;;;;11.70;8.10;;;;;;;12.49;100.00;99443.52;105725;1257;75082;-70
2023/06/01 02:33:32;;;;;;;16.70;9.00;;;;;;;12.53;100.00;99444.11;105592;1262;68876;-69
2023/06/01 02:36:00;;;;;;;16.80;8.30;;;;;;;12.65;100.00;99443.41;105853;1254;72983;-70
2023/06/01 02:38:27;;;;;;;15.20;9.20;;;;;;;12.75;100.00;99438.29;105694;1254;61340;-72
2023/06/01 02:40:54;;;;;;;15.40;8.00;;;;;;;12.82;100.00;99439.04;105905;1254;61327;-71
2023/06/01 02:43:21;;;;;;;16.40;9.50;;;;;;;12.91;100.00;99434.17;105787;1258;73233;-69
2023/06/01 02:45:47;;;;;;;17.00;9.00;;;;;;;13.11;100.00;99437.95;105804;1256;67633;-69
2023/06/01 02:48:15;;;;;;;16.60;8.70;;;;;;;13.22;100.00;99436.54;105845;1253;72597;-70
2023/06/01 02:50:42;;;;;;;13.00;9.10;;;;;;;13.41;100.00;99436.89;105825;1253;62390;-69
2023/06/01 02:53:09;;;;;;;19.10;9.80;;;;;;;13.57;100.00;99440.06;105633;1254;61334;-70
2023/06/01 02:55:36;;;;;;;18.30;10.00;;;;;;;13.68;100.00;99442.55;105531;1262;75239;-71
2023/06/01 02:58:18;;;;;;;16.30;9.80;;;;;;;13.92;100.00;99443.02;105651;1254;68573;-69
2023/06/01 03:01:00;;;;;;;18.60;10.60;;;;;;;14.10;99.59;99445.89;105636;1254;72178;-70
2023/06/01 03:03:28;;;;;;;21.40;8.90;;;;;;;14.25;97.22;99441.15;105820;1257;61700;-71
2023/06/01 03:05:58;;;;;;;18.30;8.50;;;;;;;14.17;97.02;99439.80;105871;1254;61343;-71
2023/06/01 03:08:39;;;;;;;23.10;8.40;;;;;;;14.17;97.94;99437.42;105914;1256;74544;-71
2023/06/01 03:11:07;;;;;;;17.90;9.10;;;;;;;14.30;96.91;99434.73;105705;1254;68676;-72
2023/06/01 03:13:37;;;;;;;18.20;9.50;;;;;;;14.57;94.47;99437.41;105706;1259;73104;-72
2023/06/01 03:16:04;;;;;;;16.20;9.70;;;;;;;14.73;93.48;99437.63;105905;1254;61883;-71
2023/06/01 03:18:33;;;;;;;25.70;9.80;;;;;;;14.92;91.63;99437.55;105684;1259;61251;-70
2023/06/01 03:21:02;;;;;;;20.00;8.90;;;;;;;15.14;89.09;99443.54;105814;1256;73951;-71
2023/06/01 03:23:30;;;;;;;14.90;9.00;;;;;;;15.32;85.78;99444.42;105887;1254;68958;-71
2023/06/01 03:25:57;;;;;;;13.30;8.30;;;;;;;15.59;83.21;99439.46;107390;1252;73107;-72
2023/06/01 03:28:24;;;;;;;23.30;8.90;;;;;;;15.62;82.29;99438.55;108646;1256;61653;-72
2023/06/01 03:30:52;;;;;;;22.30;7.40;;;;;;;15.92;80.49;99431.30;105948;1253;61322;-71
2023/06/01 03:33:20;;;;;;;12.20;5.80;;;;;;;16.03;78.71;99431.39;105707;1261;73404;-74
2023/06/01 03:35:49;;;;;;;10.30;6.00;;;;;;;16.02;77.28;99432.54;105782;1253;68794;-72
2023/06/01 03:38:16;;;;;;;18.50;6.30;;;;;;;16.21;74.99;99433.84;105477;1254;72748;-71
2023/06/01 03:40:43;;;;;;;16.10;5.50;;;;;;;16.30;72.82;99436.62;105779;1253;61223;-71
2023/06/01 03:43:09;;;;;;;10.70;6.20;;;;;;;16.58;70.94;99438.02;105748;1260;61302;-70
2023/06/01 03:45:36;;;;;;;9.60;5.50;;;;;;;16.60;70.81;99437.66;105646;1258;74336;-71
2023/06/01 03:48:03;;;;;;;10.40;5.80;;;;;;;16.45;68.89;99440.45;105816;1253;68334;-70
2023/06/01 03:50:30;;;;;;;10.50;6.40;;;;;;;16.66;68.10;99436.46;105760;1260;72779;-71
2023/06/01 03:52:57;;;;;;;11.20;5.90;;;;;;;16.87;67.04;99437.83;105686;1254;62184;-71
2023/06/01 03:55:25;;;;;;;8.90;6.40;;;;;;;17.17;64.41;99435.20;105645;1253;61375;-71
2023/06/01 03:58:04;;;;;;;12.50;6.10;;;;;;;17.36;62.06;99442.02;105738;1257;75077;-75
2023/06/01 04:00:32;;;;;;;8.10;5.30;;;;;;;17.48;60.40;99437.77;105745;1254;67535;-74
2023/06/01 04:03:01;;;;;;;17.60;6.20;;;;;;;17.55;59.85;99440.88;105812;1254;73142;-75
2023/06/01 04:05:28;;;;;;;15.30;5.40;;;;;;;17.80;58.37;99439.56;105835;1253;61355;-71
2023/06/01 04:07:55;;;;;;;10.10;5.60;;;;;;;18.08;56.34;99437.50;105686;1253;61356;-70
2023/06/01 04:10:24;;;;;;;10.70;5.10;;;;;;;18.32;54.47;99440.90;105625;1257;154303;-70
2023/06/01 04:12:51;;;;;;;9.10;4.90;;;;;;;18.44;52.27;99440.29;105717;1253;69159;-71
2023/06/01 04:15:20;;;;;;;6.40;4.40;;;;;;;18.42;51.86;99443.79;105712;1254;72602;-72
2023/06/01 04:17:47;;;;;;;9.40;5.50;;;;;;;18.64;51.55;99439.37;105743;1257;61349;-71
2023/06/01 04:20:15;;;;;;;12.40;5.40;;;;;;;18.91;51.44;99435.52;105761;1254;61360;-72
2023/06/01 04:22:43;;;;;;;9.30;4.90;;;;;;;19.24;50.47;99438.56;105663;1262;74610;-73
2023/06/01 04:25:11;;;;;;;12.80;4.10;;;;;;;19.45;50.04;99437.71;105837;1254;68385;-70
2023/06/01 04:27:47;;;;;;;14.40;4.60;;;;;;;19.69;48.61;99438.27;105807;1256;72538;-72
2023/06/01 04:30:16;;;;;;;11.60;5.70;;;;;;;19.77;47.98;99435.45;105802;1253;61292;-71
2023/06/01 04:32:45;;;;;;;12.10;5.20;;;;;;;20.03;48.44;99433.23;105775;1254;61294;-75
2023/06/01 04:35:12;;;;;;;9.90;5.50;;;;;;;20.59;47.17;99435.70;105757;1261;73462;-72
2023/06/01 04:37:40;;;;;;;9.20;4.50;;;;;;;20.82;46.52;99434.67;105790;1254;68419;-71
2023/06/01 04:40:09;;;;;;;11.90;5.40;;;;;;;21.02;46.14;99432.41;105824;1257;72375;-70
2023/06/01 04:42:42;;;;;;;9.40;4.30;;;;;;;21.35;45.86;99431.58;105743;1257;61263;-72
2023/06/01 04:45:09;;;;;;;6.40;4.90;;;;;;;21.77;44.21;99434.04;105825;1254;62222;-70
2023/06/01 04:47:39;;;;;;;8.60;4.40;;;;;;;21.77;43.96;99434.32;105676;1257;74584;-71
2023/06/01 04:50:12;;;;;;;6.30;4.10;;;;;;;21.95;43.32;99433.77;105795;1254;68611;-71
2023/06/01 04:52:39;;;;;;;15.50;4.20;;;;;;;22.12;43.08;99431.76;105818;1258;72337;-71
2023/06/01 04:55:07;;;;;;;12.10;4.20;;;;;;;22.20;42.54;99433.48;105699;1253;61381;-70
2023/06/01 04:57:33;;;;;;;31.40;5.90;;;;;;;22.36;42.29;99435.95;105658;1253;61430;-71
2023/06/01 05:00:00;;;;;;;9.20;3.90;;;;;;;22.66;40.96;99436.13;105782;1253;73688;-71
2023/06/01 05:02:27;;;;;;;10.50;3.70;;;;;;;22.70;40.05;99433.77;105801;1253;68575;-71
2023/06/01 05:04:54;;;;;;;11.50;3.90;;;;;;;22.82;39.84;99436.21;105662;1254;72273;-71
2023/06/01 05:07:21;;;;;;;9.20;3.90;;;;;;;23.12;39.36;99436.95;105707;1254;61295;-70
2023/06/01 05:09:48;;;;;;;6.50;3.70;;;;;;;23.32;38.88;99435.60;105782;1254;61129;-72
2023/06/01 05:12:15;;;;;;;9.10;3.90;;;;;;;23.46;38.40;99437.35;105749;1256;74511;-75
2023/06/01 05:14:42;;;;;;;7.60;2.90;;;;;;;23.72;38.47;99436.78;105579;1253;68582;-71
2023/06/01 05:17:10;;;;;;;19.90;8.60;;;;;;;23.98;38.07;99439.00;107556;1253;72499;-70
2023/06/01 05:19:38;;;;;;;53.90;30.30;;;;;;;24.39;37.83;99443.92;108183;1253;61265;-69
2023/06/01 05:22:05;;;;;;;7.80;4.30;;;;;;;24.99;36.77;99445.23;107847;1253;59703;-68
2023/06/01 05:24:32;;;;;;;8.60;3.50;;;;;;;25.18;36.01;99446.45;105597;1264;73792;-74
2023/06/01 05:26:58;;;;;;;5.80;3.00;;;;;;;25.51;35.12;99442.39;105864;1256;69593;-71
2023/06/01 05:29:25;;;;;;;9.90;3.20;;;;;;;25.55;35.12;99444.59;105706;1259;72794;-78
2023/06/01 05:31:52;;;;;;;10.30;3.10;;;;;;;25.57;34.41;99445.05;105811;1254;61323;-75
2023/06/01 05:34:20;;;;;;;5.20;3.20;;;;;;;25.41;34.48;99442.70;105741;1254;61350;-76
2023/06/01 05:36:48;;;;;;;11.70;3.90;;;;;;;25.44;34.20;99445.67;105369;1253;74248;-77
2023/06/01 05:39:15;;;;;;;3.60;2.80;;;;;;;25.54;34.48;99444.41;105766;1256;69156;-69
2023/06/01 05:41:42;;;;;;;13.40;3.70;;;;;;;26.07;33.26;99447.61;105542;1263;73126;-69
2023/06/01 05:44:10;;;;;;;20.20;4.30;;;;;;;26.44;32.40;99448.67;105634;1254;61481;-66
2023/06/01 05:46:37;;;;;;;5.50;3.20;;;;;;;26.82;31.68;99449.27;105821;1253;61212;-70
2023/06/01 05:49:03;;;;;;;8.30;3.70;;;;;;;26.90;31.91;99454.69;105666;1257;75187;-71
2023/06/01 05:51:36;;;;;;;9.70;4.20;;;;;;;26.80;32.12;99453.16;105807;1253;69171;-70
2023/06/01 05:54:04;;;;;;;7.60;4.10;;;;;;;26.73;31.96;99453.19;105622;1254;72424;-70
2023/06/01 05:56:32;;;;;;;18.70;12.00;;;;;;;27.02;31.68;99451.66;105812;1253;61240;-71
2023/06/01 05:58:59;;;;;;;7.50;4.60;;;;;;;27.35;31.04;99452.95;105654;1253;61209;-68
2023/06/01 06:01:27;;;;;;;10.20;2.90;;;;;;;27.73;30.77;99453.86;105739;1259;75095;-70
2023/06/01 06:03:55;;;;;;;;;;;;;;;27.79;29.49;99460.96;105883;1257;69110;-72
2023/06/01 06:06:22;;;;;;;12.00;4.30;;;;;;;27.88;29.15;99460.95;105792;1257;72343;-70
2023/06/01 06:08:52;;;;;;;6.80;3.40;;;;;;;28.10;29.02;99463.39;105754;1253;61258;-70
2023/06/01 06:11:19;;;;;;;5.50;2.90;;;;;;;28.49;28.87;99458.66;105797;1254;61147;-69
2023/06/01 06:13:48;;;;;;;46.30;41.70;;;;;;;28.70;28.12;99459.15;105768;1259;74543;-71
2023/06/01 06:16:15;;;;;;;14.50;10.70;;;;;;;28.62;27.64;99457.34;105677;1262;67508;-70
2023/06/01 06:18:42;;;;;;;95.40;53.10;;;;;;;28.40;27.83;99457.85;105784;1254;72601;-70
2023/06/01 06:21:09;;;;;;;65.80;38.20;;;;;;;28.32;27.84;99456.17;105788;1253;62219;-74
2023/06/01 06:23:39;;;;;;;49.60;33.10;;;;;;;28.32;27.67;99455.71;105798;1253;61289;-72
2023/06/01 06:26:06;;;;;;;7.80;3.00;;;;;;;28.29;27.20;99452.11;105751;1258;74574;-71
2023/06/01 06:28:33;;;;;;;7.50;2.60;;;;;;;28.08;27.45;99454.14;105730;1253;68490;-70
2023/06/01 06:31:00;;;;;;;9.40;4.10;;;;;;;28.40;27.73;99452.89;105779;1253;72310;-73
2023/06/01 06:33:27;;;;;;;10.50;4.10;;;;;;;28.74;27.42;99452.17;105760;1253;61362;-73
2023/06/01 06:35:55;;;;;;;5.10;2.20;;;;;;;28.69;26.92;99450.70;106536;1257;61244;-71
2023/06/01 06:38:22;;;;;;;12.80;2.60;;;;;;;28.44;26.80;99449.61;109082;1253;73462;-70
2023/06/01 06:40:48;;;;;;;12.80;4.70;;;;;;;28.39;27.17;99447.98;106910;1253;67272;-78
2023/06/01 06:43:16;;;;;;;31.10;22.60;;;;;;;28.65;27.29;99450.58;105395;1259;72565;-73
2023/06/01 06:45:43;;;;;;;5.90;2.30;;;;;;;28.81;26.48;99452.24;105796;1253;61323;-69
2023/06/01 06:48:09;;;;;;;8.40;3.00;;;;;;;28.32;26.67;99451.38;105704;1253;61285;-72
2023/06/01 06:50:38;;;;;;;72.50;52.80;;;;;;;28.20;26.98;99447.35;105654;1262;74532;-71
2023/06/01 06:53:05;;;;;;;21.20;15.80;;;;;;;28.40;26.97;99450.67;105751;1254;68613;-76
2023/06/01 06:55:32;;;;;;;13.10;5.30;;;;;;;28.70;26.72;99446.46;105757;1258;72548;-71
2023/06/01 06:57:59;;;;;;;3.70;2.70;;;;;;;28.73;26.90;99449.88;105771;1254;61313;-72
2023/06/01 07:00:25;;;;;;;6.50;2.50;;;;;;;28.85;26.72;99447.56;105766;1254;61327;-70
2023/06/01 07:02:52;;;;;;;5.30;2.60;;;;;;;29.20;26.29;99445.05;105805;1253;73388;-73
2023/06/01 07:05:19;;;;;;;5.20;1.60;;;;;;;29.30;25.45;99451.30;105798;1254;68333;-71
2023/06/01 07:07:46;;;;;;;6.70;3.90;;;;;;;29.03;25.53;99448.28;105804;1253;72403;-78
2023/06/01 07:10:13;;;;;;;56.10;35.00;;;;;;;29.43;25.77;99444.60;105746;1254;62193;-70
2023/06/01 07:12:41;;;;;;;;;;;;;;;29.24;25.10;99440.50;105795;1253;62226;-73
2023/06/01 07:15:08;;;;;;;26.50;9.60;;;;;;;28.95;25.51;99441.42;105764;1258;74223;-69
2023/06/01 07:17:35;;;;;;;9.70;5.30;;;;;;;29.29;25.59;99440.15;105831;1253;68614;-73
2023/06/01 07:20:06;;;;;;;4.20;2.20;;;;;;;29.40;25.53;99437.09;105773;1253;72323;-71
2023/06/01 07:22:33;;;;;;;24.30;6.70;;;;;;;29.45;25.29;99435.54;105847;1253;61243;-76
2023/06/01 07:25:00;;;;;;;27.00;19.30;;;;;;;29.35;25.03;99432.62;105702;1253;61344;-75
2023/06/01 07:27:27;;;;;;;25.80;4.00;;;;;;;29.40;25.08;99426.90;105810;1259;74310;-72
2023/06/01 07:29:55;;;;;;;;;;;;;;;29.38;25.42;99428.53;105796;1256;68583;-73
2023/06/01 07:32:23;;;;;;;16.10;7.30;;;;;;;28.96;25.72;99418.54;105965;1259;72409;-73
2023/06/01 07:34:51;;;;;;;13.30;4.10;;;;;;;29.03;25.59;99415.67;105829;1253;61704;-75
2023/06/01 07:37:21;;;;;;;12.20;3.40;;;;;;;29.20;25.81;99414.89;105899;1259;61241;-72
2023/06/01 07:39:48;;;;;;;3.70;2.20;;;;;;;29.40;25.88;99415.75;105774;1262;74693;-70
2023/06/01 07:42:15;;;;;;;3.30;2.40;;;;;;;29.75;25.83;99415.13;105837;1253;68476;-73
2023/06/01 07:44:43;;;;;;;;;;;;;;;29.64;25.29;99417.67;105790;1257;71490;-73
2023/06/01 07:47:10;;;;;;;6.10;2.70;;;;;;;29.48;25.21;99413.92;105731;1254;61336;-77
2023/06/01 07:49:37;;;;;;;9.40;2.50;;;;;;;30.10;24.84;99416.11;105775;1254;61629;-72
2023/06/01 07:52:04;;;;;;;7.10;2.00;;;;;;;29.98;24.84;99415.41;105769;1258;74422;-71
2023/06/01 07:54:36;;;;;;;7.70;1.90;;;;;;;29.76;24.54;99410.24;105815;1254;68356;-71
2023/06/01 07:57:04;;;;;;;8.20;2.80;;;;;;;29.83;25.23;99405.15;105847;1259;72448;-75
2023/06/01 07:59:32;;;;;;;12.90;3.40;;;;;;;30.11;25.13;99405.91;105748;1254;61340;-71
2023/06/01 08:02:00;;;;;;;13.10;8.20;;;;;;;29.76;25.38;99400.75;105785;1254;61253;-72
2023/06/01 08:04:33;;;;;;;28.40;22.20;;;;;;;29.82;25.53;99399.30;105848;1257;74573;-70
2023/06/01 08:07:02;;;;;;;8.20;3.90;;;;;;;30.08;25.28;99403.52;105842;1253;68609;-70
2023/06/01 08:09:30;;;;;;;4.00;2.30;;;;;;;30.46;24.70;99402.88;105775;1260;72397;-76
2023/06/01 08:11:57;;;;;;;8.60;2.80;;;;;;;30.30;24.26;99398.80;105744;1254;61342;-71
2023/06/01 08:14:24;;;;;;;7.80;2.80;;;;;;;29.93;24.84;99394.52;105801;1253;61279;-71
2023/06/01 08:16:51;;;;;;;7.80;2.20;;;;;;;29.83;24.62;99387.52;105819;1259;74584;-74
2023/06/01 08:19:18;;;;;;;9.20;2.20;;;;;;;29.70;25.09;99387.92;105786;1253;68584;-73
2023/06/01 08:21:49;;;;;;;5.90;1.80;;;;;;;29.86;24.73;99383.58;105781;1254;72532;-78
2023/06/01 08:24:18;;;;;;;10.50;2.70;;;;;;;29.89;24.98;99381.70;105801;1254;61345;-73
2023/06/01 08:26:45;;;;;;;75.90;68.70;;;;;;;30.24;25.22;99378.45;105785;1254;61116;-71
2023/06/01 08:29:12;;;;;;;8.60;5.80;;;;;;;30.38;24.77;99376.29;105790;1253;73078;-72
2023/06/01 08:31:39;;;;;;;5.40;2.40;;;;;;;30.05;24.69;99379.23;105816;1254;68473;-70
2023/06/01 08:34:06;;;;;;;3.40;1.90;;;;;;;29.66;24.62;99377.71;105671;1253;71164;-75
2023/06/01 08:36:33;;;;;;;4.10;1.90;;;;;;;29.92;24.31;99375.08;105682;1253;61346;-73
2023/06/01 08:39:00;;;;;;;7.10;2.40;;;;;;;29.83;24.63;99368.31;105760;1259;61263;-73
2023/06/01 08:41:39;;;;;;;5.50;2.20;;;;;;;29.79;24.51;99367.98;105801;1257;74428;-77
2023/06/01 08:44:06;;;;;;;34.00;16.70;;;;;;;29.79;24.34;99365.39;105734;1253;67920;-71
2023/06/01 08:46:36;;;;;;;150.20;98.20;;;;;;;29.85;24.29;99366.51;105401;1260;72601;-75
2023/06/01 08:49:02;;;;;;;7.30;4.10;;;;;;;29.61;24.26;99366.45;105806;1253;61255;-70
2023/06/01 08:51:33;;;;;;;5.60;3.10;;;;;;;29.86;24.12;99363.19;105727;1253;61244;-70
2023/06/01 08:54:01;;;;;;;8.50;5.60;;;;;;;30.02;24.06;99357.16;105726;1254;73444;-71
2023/06/01 08:56:30;;;;;;;6.30;3.20;;;;;;;30.27;24.14;99360.84;105709;1254;68259;-70
2023/06/01 08:58:58;;;;;;;6.70;2.10;;;;;;;30.46;23.72;99359.77;105791;1258;72359;-71
2023/06/01 09:01:25;;;;;;;5.80;3.10;;;;;;;30.32;23.49;99358.47;105783;1253;61244;-77
2023/06/01 09:03:52;;;;;;;7.90;2.30;;;;;;;30.42;23.71;99358.82;105636;1254;61213;-70
2023/06/01 09:06:18;;;;;;;3.00;2.20;;;;;;;30.45;23.23;99358.27;105783;1259;74621;-73
2023/06/01 09:08:46;;;;;;;;;;;;;;;30.25;23.62;99354.89;105799;1254;68611;-72
2023/06/01 09:11:13;;;;;;;20.10;18.40;;;;;;;30.21;23.71;99351.78;105719;1254;72386;-70
2023/06/01 09:13:40;;;;;;;181.40;13.90;;;;;;;30.21;23.47;99351.39;105764;1253;61214;-70
2023/06/01 09:16:07;;;;;;;63.90;36.90;;;;;;;30.01;23.36;99351.23;105798;1253;61343;-74
2023/06/01 09:18:33;;;;;;;5.50;2.30;;;;;;;30.14;24.02;99348.20;105790;1259;74858;-72
2023/06/01 09:21:12;;;;;;;7.40;3.00;;;;;;;29.87;23.20;99347.86;105509;1253;69272;-77
2023/06/01 09:23:39;;;;;;;9.00;3.20;;;;;;;29.71;23.87;99343.11;105811;1254;72452;-74
2023/06/01 09:26:06;;;;;;;13.40;2.60;;;;;;;29.88;23.75;99339.48;105762;1254;61266;-80
2023/06/01 09:28:54;;;;;;;15.20;9.80;;;;;;;30.08;23.47;99338.45;105827;1254;61336;-74
2023/06/01 09:31:40;;;;;;;;;;;;;;;30.40;23.61;99334.28;105842;1259;74534;-77
2023/06/01 09:34:15;;;;;;;6.20;2.20;;;;;;;30.60;23.16;99340.24;105809;1258;68360;-74
2023/06/01 09:36:42;;;;;;;7.50;2.10;;;;;;;30.29;23.34;99337.59;105628;1259;72385;-74
2023/06/01 09:39:10;;;;;;;4.30;2.30;;;;;;;30.18;22.93;99333.98;105780;1254;61371;-80
2023/06/01 09:41:58;;;;;;;7.20;2.40;;;;;;;30.19;23.04;99329.09;105801;1254;61330;-73
2023/06/01 09:44:33;;;;;;;18.90;17.10;;;;;;;29.61;23.64;99327.73;106370;1253;74548;-75
2023/06/01 09:47:09;;;;;;;6.50;2.90;;;;;;;29.89;24.03;99322.27;108948;1257;67260;-76
2023/06/01 09:49:43;;;;;;;3.80;2.10;;;;;;;30.01;23.73;99319.30;106588;1253;71368;-78
2023/06/01 09:52:12;;;;;;;4.80;2.60;;;;;;;30.17;23.73;99315.79;105816;1253;61350;-78
2023/06/01 09:54:48;;;;;;;5.60;2.60;;;;;;;30.42;23.72;99309.29;105861;1263;61234;-75
2023/06/01 09:57:26;;;;;;;6.40;2.50;;;;;;;30.39;23.48;99312.84;105832;1253;74316;-75
2023/06/01 09:59:53;;;;;;;10.20;6.30;;;;;;;30.11;23.80;99308.25;105752;1256;68721;-73
2023/06/01 10:02:23;;;;;;;19.40;12.80;;;;;;;30.11;23.61;99308.49;105760;1254;72591;-74
2023/06/01 10:04:53;;;;;;;39.50;24.80;;;;;;;30.56;23.40;99312.08;105863;1254;61298;-71
2023/06/01 10:07:21;;;;;;;11.70;6.90;;;;;;;30.77;23.05;99310.02;105870;1261;61334;-73
2023/06/01 10:09:54;;;;;;;13.70;4.70;;;;;;;30.57;23.12;99309.93;105853;1254;73421;-81
2023/06/01 10:12:21;;;;;;;10.70;4.20;;;;;;;30.39;23.79;99302.48;106047;1259;67252;-74
2023/06/01 10:14:49;;;;;;;10.80;3.70;;;;;;;30.28;23.67;99299.28;105831;1260;72562;-79
2023/06/01 10:17:18;;;;;;;4.10;2.10;;;;;;;30.74;23.54;99305.19;105561;1257;61254;-75
2023/06/01 10:19:45;;;;;;;6.80;2.70;;;;;;;30.42;23.24;99296.08;105703;1262;61631;-73
2023/06/01 10:22:12;;;;;;;25.00;18.30;;;;;;;30.46;23.56;99298.77;105566;1262;74558;-74
2023/06/01 10:24:41;;;;;;;2.80;2.10;;;;;;;30.78;22.90;99298.41;105698;1256;68602;-73
2023/06/01 10:27:42;;;;;;;15.10;10.50;;;;;;;30.85;22.97;99298.80;105716;1262;72438;-70
2023/06/01 10:30:12;;;;;;;15.90;7.10;;;;;;;30.89;23.29;99292.63;105037;1266;61440;-75
2023/06/01 10:32:42;;;;;;;;;;;;;;;30.96;22.96;99298.48;105147;1265;61763;-72
2023/06/01 10:35:31;;;;;;;45.90;41.50;;;;;;;30.86;23.10;99300.31;104987;1266;74364;-76
2023/06/01 10:38:09;;;;;;;46.10;35.60;;;;;;;30.82;23.00;99301.96;104985;1268;67271;-71
2023/06/01 10:40:37;;;;;;;12.80;7.30;;;;;;;30.72;22.85;99296.50;105143;1266;72435;-73
2023/06/01 10:43:04;;;;;;;6.20;3.10;;;;;;;31.20;22.94;99292.82;105222;1268;61359;-73
2023/06/01 10:45:34;;;;;;;9.20;5.20;;;;;;;31.44;22.80;99287.95;105114;1265;61934;-74
2023/06/01 10:48:02;;;;;;;10.20;4.10;;;;;;;31.35;22.86;99285.65;105233;1268;74640;-72
2023/06/01 10:50:29;;;;;;;13.20;2.30;;;;;;;31.37;22.91;99281.93;105302;1264;68787;-72
2023/06/01 10:52:56;;;;;;;8.20;2.60;;;;;;;31.30;22.91;99278.05;105300;1268;72634;-72
2023/06/01 10:55:25;;;;;;;10.10;6.20;;;;;;;31.36;23.44;99280.34;105347;1266;61341;-72
2023/06/01 10:58:25;;;;;;;24.40;21.10;;;;;;;31.61;22.91;99278.06;104944;1264;61348;-72
2023/06/01 11:00:53;;;;;;;14.40;6.20;;;;;;;31.63;22.45;99278.13;105264;1268;74470;-72
2023/06/01 11:03:44;;;;;;;2.80;2.10;;;;;;;31.70;22.63;99268.42;105314;1263;68540;-74
2023/06/01 11:06:42;;;;;;;8.70;5.50;;;;;;;31.33;22.31;99262.30;104911;1271;72272;-72
2023/06/01 11:09:15;;;;;;;20.80;4.20;;;;;;;31.15;23.00;99260.98;105209;1267;61315;-73
2023/06/01 11:11:50;;;;;;;9.00;4.90;;;;;;;31.37;23.28;99252.39;105015;1263;61317;-74
2023/06/01 11:14:31;;;;;;;5.20;2.30;;;;;;;31.38;22.83;99256.19;105273;1267;74516;-72
2023/06/01 11:17:28;;;;;;;8.80;5.60;;;;;;;31.32;23.04;99246.13;105100;1268;67688;-74
2023/06/01 11:20:00;;;;;;;109.60;72.50;;;;;;;31.55;22.99;99245.43;105382;1263;71441;-70
2023/06/01 11:22:35;;;;;;;223.60;138.40;;;;;;;31.63;22.55;99244.37;105101;1269;61389;-73
2023/06/01 11:25:04;;;;;;;42.70;23.80;;;;;;;31.43;22.61;99241.52;105336;1262;61333;-75
2023/06/01 11:27:31;;;;;;;19.70;16.70;;;;;;;31.08;22.84;99227.98;105356;1263;75081;-70
2023/06/01 11:29:58;;;;;;;7.10;2.70;;;;;;;31.01;23.11;99229.58;105235;1263;69179;-74
2023/06/01 11:32:25;;;;;;;9.70;4.60;;;;;;;30.70;22.91;99236.42;105312;1265;72575;-75